Boulder Creek, California
Current Conditions -  °F | °C
As of 7:53 AM on Thursday 18 Dec 2014 (Local Time) from KSJC Reporting Station
Broken Clouds Broken Clouds  
Wind Chill: 51°   Ceiling: 5000
Heat Index: 51°   Visibility: 10mi
Dew Point: 47°   Wind: 12mph
Humidity: 86%   Direction: 120°ESE
Pressure: 30.13"   Gusts: NA
Location:  37.13°N, 122.12°W
Report Text: KSJC 181553Z 12010KT 10SM FEW008 SCT028 BKN050 11/08 A3013 RMK AO2 SLP202 T01060083
Loading
Personal Weather Stations






























Interactive Weather Map New forecast layout! Learn more

10-Day Weather Forecast

Advertisements
Track Severe Weather on mobile